map of BFM home
BFM - Airport
Location
City:  Mobile, Alabama, United States
Name:Mobile Downtown Airport
ICAO:KBFM
IATA:BFM
FAA LID:BFM

Details
Type:Airport (Part 139 Class IV)
Use:Public/Civil, International (customs landing rights)
Latitude:3037'36"N (30.626778)
Longitude:8804'05"W (-88.068082)
Datum:WGS 1984
Elevation:26 ft (8 m)
Variation:2.35W (WMM2015 magnetic declination)
-0.11 annual change
Runways:2
Longest:9618 × 150 ft (2932 × 45.5 m), paved

Time
Time Zone:UTC-6 (DST-5)
Local Time:

Weather
METAR:KBFM 210753Z AUTO 35007KT 10SM CLR 07/05 A3028 RMK AO2 SLP252 T00670050
TAF:KBFM 210520Z 2106/2206 36006KT P6SM SKC

Related Locations
Nearby:
Farthest:CCK: 11124 mi / 17902 km
West Island (Pulau Panjang) [Cocos (Keeling) Islands], CC

Find:

   beyond  
but within

Other Information
Maps:
Delays:
NOTAMs:
Links:
Sources:

  
  • flag of United States
  • flag of Alabama
  

Airport Diagram

Airport diagram for BFM

Airport diagram PDF

Sectional Chart

Flight Planning
at skyvector.com

Satellite Image

Google Maps Satellite view

 

Copyright © 2004-2018 Karl L. Swartz. All rights reserved.
The Great Circle Mapper name and logo are trademarks of the Great Circle Mapper.
All other trademarks mentioned herein belong to their respective owners.
Please see credits for attibutions and further copyright information.

  Follow gcmap on Facebook Follow gcmap on Twitter Follow gcmap on Google+ GCmap on LinkedIn

hCard Microformat

Geo Microformat